Terminal Aerodrome Forecast
Issued by NWS

Current Version | Previous Version | Text Only | Print | Product List | Glossary On
Versions: 1 2 3 4 5 6 7 8 9 10 11 12 13 14
000
FTUS45 KFGZ 310534
TAFSEZ
TAF
KSEZ 310534Z 3106/0106 04008KT P6SM FEW110
     FM311800 22006KT P6SM VCSH BKN110
      TEMPO 3119/3123 VRB10G20KT P6SM SCT110
     FM010400 04010KT P6SM FEW110=

USA.gov is the U.S. government's official web portal to all federal, state and local government web resources and services.